createdAt,value
2023-04-19T00:00:46.326Z,7.00
2023-04-19T00:03:14.585Z,8.03
2023-04-19T00:05:41.673Z,6.67
2023-04-19T00:08:08.820Z,5.20
2023-04-19T00:10:39.986Z,6.60
2023-04-19T00:13:06.711Z,7.10
2023-04-19T00:15:35.099Z,4.57
2023-04-19T00:18:01.981Z,7.13
2023-04-19T00:20:28.798Z,4.57
2023-04-19T00:22:55.475Z,7.63
2023-04-19T00:25:22.105Z,5.07
2023-04-19T00:27:48.695Z,4.40
2023-04-19T00:30:15.302Z,4.57
2023-04-19T00:32:42.039Z,3.67
2023-04-19T00:35:08.998Z,6.27
2023-04-19T00:37:35.819Z,3.60
2023-04-19T00:40:02.443Z,4.30
2023-04-19T00:42:29.073Z,6.07
2023-04-19T00:44:55.719Z,4.87
2023-04-19T00:47:22.437Z,7.13
2023-04-19T00:49:49.140Z,6.17
2023-04-19T00:52:15.833Z,5.43
2023-04-19T00:54:42.710Z,3.60
2023-04-19T00:57:09.390Z,4.37
2023-04-19T00:59:36.097Z,3.77
2023-04-19T01:02:02.833Z,3.97
2023-04-19T01:04:29.706Z,6.37
2023-04-19T01:06:56.440Z,5.00
2023-04-19T01:09:23.029Z,4.43
2023-04-19T01:11:50.859Z,4.07
2023-04-19T01:14:17.668Z,5.53
2023-04-19T01:16:45.542Z,3.63
2023-04-19T01:19:12.450Z,5.10
2023-04-19T01:21:40.176Z,5.47
2023-04-19T01:24:07.169Z,6.17
2023-04-19T01:26:33.832Z,3.87
2023-04-19T01:29:00.419Z,4.80
2023-04-19T01:31:27.027Z,6.03
2023-04-19T01:33:53.646Z,4.27
2023-04-19T01:36:20.368Z,4.87
2023-04-19T01:38:49.766Z,6.40
2023-04-19T01:41:16.460Z,4.57
2023-04-19T01:43:43.074Z,5.73
2023-04-19T01:46:09.725Z,6.37
2023-04-19T01:48:36.348Z,6.83
2023-04-19T01:51:03.004Z,3.83
2023-04-19T01:53:29.625Z,4.53
2023-04-19T01:55:56.248Z,4.77
2023-04-19T01:58:22.859Z,4.83
2023-04-19T02:00:49.481Z,4.93
2023-04-19T02:03:16.340Z,5.37
2023-04-19T02:05:43.230Z,4.33
2023-04-19T02:08:09.848Z,4.07
2023-04-19T02:10:36.621Z,5.90
2023-04-19T02:13:03.482Z,4.60
2023-04-19T02:15:30.177Z,3.93
2023-04-19T02:17:56.869Z,4.70
2023-04-19T02:20:24.534Z,4.23
2023-04-19T02:22:51.150Z,4.83
2023-04-19T02:25:19.461Z,5.60
2023-04-19T02:27:46.300Z,6.00
2023-04-19T02:30:13.228Z,4.17
2023-04-19T02:32:39.919Z,6.20
2023-04-19T02:35:06.955Z,5.87
2023-04-19T02:37:33.660Z,4.27
2023-04-19T02:40:00.436Z,5.00
2023-04-19T02:42:27.143Z,3.07
2023-04-19T02:44:54.305Z,4.87
2023-04-19T02:47:20.975Z,4.47
2023-04-19T02:49:47.628Z,4.10
2023-04-19T02:52:14.694Z,5.33
2023-04-19T02:54:41.346Z,3.93
2023-04-19T02:57:07.935Z,6.93
2023-04-19T02:59:34.583Z,10.03
2023-04-19T03:02:01.307Z,4.53
2023-04-19T03:04:29.041Z,4.00
2023-04-19T03:06:55.755Z,5.23
2023-04-19T03:09:22.400Z,3.93
2023-04-19T03:11:49.065Z,3.43
2023-04-19T03:14:15.871Z,4.07
2023-04-19T03:16:42.636Z,3.37
2023-04-19T03:19:09.293Z,5.77
2023-04-19T03:21:35.920Z,5.57
2023-04-19T03:24:02.767Z,5.77
2023-04-19T03:26:29.526Z,5.50
2023-04-19T03:28:56.143Z,4.87
2023-04-19T03:31:22.813Z,5.27
2023-04-19T03:33:49.493Z,6.33
2023-04-19T03:36:16.410Z,5.13
2023-04-19T03:38:44.502Z,6.90
2023-04-19T03:41:21.603Z,8.03
2023-04-19T03:43:48.261Z,6.23
2023-04-19T03:46:14.963Z,7.03
2023-04-19T03:48:41.589Z,4.87
2023-04-19T03:51:08.296Z,3.00
2023-04-19T03:53:36.076Z,4.77
2023-04-19T03:56:02.959Z,5.43
2023-04-19T03:58:29.581Z,8.20
2023-04-19T04:00:56.220Z,5.27
2023-04-19T04:03:23.036Z,7.33
2023-04-19T04:05:49.875Z,4.13
2023-04-19T04:08:16.484Z,7.50
2023-04-19T04:10:43.190Z,4.50
2023-04-19T04:13:09.983Z,6.50
2023-04-19T04:15:36.726Z,4.87
2023-04-19T04:18:03.508Z,6.97
2023-04-19T04:20:30.700Z,4.67
2023-04-19T04:22:57.349Z,4.40
2023-04-19T04:25:24.405Z,7.30
2023-04-19T04:27:52.356Z,5.27
2023-04-19T04:30:19.017Z,4.83
2023-04-19T04:32:46.959Z,5.17
2023-04-19T04:35:13.704Z,3.60
2023-04-19T04:37:40.309Z,4.27
2023-04-19T04:40:08.982Z,5.03
2023-04-19T04:42:35.739Z,3.63
2023-04-19T04:45:02.433Z,4.33
2023-04-19T04:47:33.937Z,3.80
2023-04-19T04:50:00.811Z,5.13
2023-04-19T04:52:27.416Z,5.17
2023-04-19T04:54:54.150Z,4.20
2023-04-19T04:57:21.229Z,5.00
2023-04-19T04:59:48.351Z,4.13
2023-04-19T05:02:15.577Z,5.30
2023-04-19T05:04:42.977Z,4.13
2023-04-19T05:07:10.061Z,4.53
2023-04-19T05:09:36.795Z,3.33
2023-04-19T05:12:03.601Z,2.43
2023-04-19T05:14:30.644Z,4.67
2023-04-19T05:16:57.425Z,8.70
2023-04-19T05:19:24.208Z,2.43
2023-04-19T05:21:52.025Z,2.57
2023-04-19T05:24:19.132Z,3.63
2023-04-19T05:26:46.041Z,5.63
2023-04-19T05:29:14.490Z,3.20
2023-04-19T05:31:41.208Z,3.27
2023-04-19T05:34:07.920Z,3.90
2023-04-19T05:36:34.979Z,3.77
2023-04-19T05:39:01.789Z,4.40
2023-04-19T05:41:28.421Z,1.87
2023-04-19T05:43:55.218Z,6.20
2023-04-19T05:46:21.898Z,6.00
2023-04-19T05:48:48.589Z,3.13
2023-04-19T05:51:17.469Z,4.80
2023-04-19T05:53:44.885Z,3.20
2023-04-19T05:56:11.578Z,4.43
2023-04-19T05:58:38.308Z,3.10
2023-04-19T06:01:05.005Z,3.60
2023-04-19T06:03:33.508Z,3.37
2023-04-19T06:06:00.700Z,5.80
2023-04-19T06:08:27.469Z,3.60
2023-04-19T06:11:00.113Z,3.33
2023-04-19T06:13:31.851Z,4.63
2023-04-19T06:15:58.596Z,2.87
2023-04-19T06:18:25.415Z,3.37
2023-04-19T06:20:53.282Z,3.37
2023-04-19T06:23:20.447Z,2.63
2023-04-19T06:25:48.997Z,11.43
2023-04-19T06:28:16.124Z,2.60
2023-04-19T06:30:42.932Z,7.20
2023-04-19T06:33:09.629Z,3.55
2023-04-19T06:35:36.366Z,4.22
2023-04-19T06:38:03.087Z,3.40
2023-04-19T06:40:29.961Z,5.28
2023-04-19T06:42:56.695Z,4.93
2023-04-19T06:45:23.387Z,2.75
2023-04-19T06:47:51.409Z,4.15
2023-04-19T06:50:18.220Z,3.13
2023-04-19T06:52:45.036Z,4.28
2023-04-19T06:55:11.853Z,4.65
2023-04-19T06:57:38.683Z,2.88
2023-04-19T07:00:06.784Z,6.03
2023-04-19T07:02:35.630Z,4.40
2023-04-19T07:05:02.391Z,3.50
2023-04-19T07:07:29.099Z,3.92
2023-04-19T07:09:55.752Z,4.20
2023-04-19T07:12:22.679Z,2.75
2023-04-19T07:14:49.614Z,3.10
2023-04-19T07:17:18.296Z,4.15
2023-04-19T07:19:48.522Z,3.83
2023-04-19T07:22:15.872Z,4.20
2023-04-19T07:24:44.597Z,3.67
2023-04-19T07:27:11.460Z,3.85
2023-04-19T07:29:38.084Z,4.15
2023-04-19T07:32:05.265Z,4.55
2023-04-19T07:34:31.986Z,4.30
2023-04-19T07:36:58.734Z,6.07
2023-04-19T07:39:25.419Z,6.18
2023-04-19T07:41:52.144Z,3.78
2023-04-19T07:44:19.247Z,4.03
2023-04-19T07:46:46.432Z,2.83
2023-04-19T07:49:13.855Z,4.65
2023-04-19T07:51:40.503Z,4.07
2023-04-19T07:54:07.326Z,3.33
2023-04-19T07:56:34.044Z,5.65
2023-04-19T07:59:08.253Z,5.30
2023-04-19T08:01:37.131Z,6.90
2023-04-19T08:04:04.421Z,3.75
2023-04-19T08:06:31.941Z,4.97
2023-04-19T08:08:58.865Z,3.63
2023-04-19T08:11:25.780Z,5.25
2023-04-19T08:14:04.777Z,4.93
2023-04-19T08:19:05.466Z,4.93
2023-04-19T08:21:40.752Z,5.25
2023-04-19T08:24:08.569Z,3.63
2023-04-19T08:26:35.541Z,3.55
2023-04-19T08:29:02.558Z,4.60
2023-04-19T08:31:29.346Z,6.18
2023-04-19T08:33:57.030Z,3.45
2023-04-19T08:36:37.169Z,5.45
2023-04-19T08:39:14.751Z,4.20
2023-04-19T08:41:41.899Z,4.70
2023-04-19T08:44:11.154Z,4.72
2023-04-19T08:46:37.891Z,2.80
2023-04-19T08:49:06.011Z,4.57
2023-04-19T08:51:33.080Z,6.00
2023-04-19T08:53:59.890Z,5.18
2023-04-19T08:56:35.286Z,5.18
2023-04-19T08:59:15.616Z,4.32
2023-04-19T09:04:31.478Z,5.18
2023-04-19T09:07:01.049Z,5.07
2023-04-19T09:11:59.865Z,6.43
2023-04-19T09:14:28.101Z,3.17
2023-04-19T09:17:12.673Z,4.00
2023-04-19T09:22:13.878Z,6.07
2023-04-19T09:27:12.355Z,5.20
2023-04-19T09:29:39.599Z,8.38
2023-04-19T09:32:06.495Z,5.10
2023-04-19T09:34:33.300Z,4.65
2023-04-19T09:37:21.427Z,6.53
2023-04-19T09:39:54.864Z,5.28
2023-04-19T09:42:38.432Z,5.18
2023-04-19T09:47:38.868Z,6.38
2023-04-19T09:50:15.270Z,4.50
2023-04-19T09:52:48.752Z,4.68
2023-04-19T09:55:26.648Z,4.57
2023-04-19T09:57:55.176Z,5.20
2023-04-19T10:00:23.678Z,5.95
2023-04-19T10:02:57.036Z,4.93
2023-04-19T10:05:25.582Z,6.88
2023-04-19T10:07:55.651Z,3.75
2023-04-19T10:10:36.226Z,7.03
2023-04-19T10:13:20.211Z,4.60
2023-04-19T10:15:52.533Z,5.05
2023-04-19T10:18:24.425Z,6.88
2023-04-19T10:21:02.622Z,5.43
2023-04-19T10:23:30.168Z,7.55
2023-04-19T10:25:57.995Z,4.65
2023-04-19T10:28:25.343Z,6.25
2023-04-19T10:31:01.065Z,5.80
2023-04-19T10:33:29.117Z,9.48
2023-04-19T10:35:56.818Z,5.80
2023-04-19T10:38:41.506Z,5.72
2023-04-19T10:41:18.708Z,4.80
2023-04-19T10:43:55.805Z,5.68
2023-04-19T10:46:23.156Z,4.45
2023-04-19T10:48:59.734Z,5.45
2023-04-19T10:51:28.265Z,7.13
2023-04-19T10:54:17.664Z,5.43
2023-04-19T10:57:10.277Z,5.43
2023-04-19T10:59:41.499Z,6.30
2023-04-19T11:02:24.819Z,5.03
2023-04-19T11:04:52.125Z,5.22
2023-04-19T11:07:20.369Z,7.32
2023-04-19T11:09:48.708Z,6.78
2023-04-19T11:12:16.850Z,6.10
2023-04-19T11:14:45.457Z,5.57
2023-04-19T11:17:19.540Z,9.85
2023-04-19T11:19:56.172Z,8.40
2023-04-19T11:22:37.186Z,5.43
2023-04-19T11:25:17.559Z,6.40
2023-04-19T11:27:45.824Z,8.02
2023-04-19T11:30:19.446Z,9.45
2023-04-19T11:32:53.824Z,6.15
2023-04-19T11:35:22.332Z,7.15
2023-04-19T11:37:49.530Z,7.45
2023-04-19T11:40:17.549Z,5.47
2023-04-19T11:42:44.851Z,7.22
2023-04-19T11:45:26.106Z,7.13
2023-04-19T11:47:56.968Z,4.72
2023-04-19T11:50:35.822Z,5.55
2023-04-19T11:53:12.592Z,6.00
2023-04-19T11:55:39.466Z,8.50
2023-04-19T11:58:12.086Z,6.82
2023-04-19T12:00:38.802Z,4.70
2023-04-19T12:03:05.873Z,7.43
2023-04-19T12:05:32.820Z,7.20
2023-04-19T12:08:08.411Z,6.43
2023-04-19T12:10:35.989Z,7.43
2023-04-19T12:13:16.994Z,5.15
2023-04-19T12:15:44.681Z,5.32
2023-04-19T12:18:11.423Z,5.57
2023-04-19T12:20:43.401Z,9.93
2023-04-19T12:23:13.822Z,4.22
2023-04-19T12:25:41.291Z,7.03
2023-04-19T12:28:08.193Z,6.18
2023-04-19T12:30:38.374Z,4.95
2023-04-19T12:33:06.197Z,5.93
2023-04-19T12:35:34.019Z,5.78
2023-04-19T12:38:00.987Z,6.28
2023-04-19T12:40:27.776Z,10.45
2023-04-19T12:42:54.915Z,6.88
2023-04-19T12:45:21.575Z,5.25
2023-04-19T12:47:48.891Z,5.88
2023-04-19T12:50:16.192Z,7.65
2023-04-19T12:52:44.173Z,7.90
2023-04-19T12:55:10.778Z,6.85
2023-04-19T12:57:37.347Z,9.07
2023-04-19T13:00:05.955Z,6.15
2023-04-19T13:02:34.611Z,4.32
2023-04-19T13:05:01.631Z,5.10
2023-04-19T13:07:28.724Z,5.43
2023-04-19T13:09:56.744Z,6.15
2023-04-19T13:12:24.190Z,6.05
2023-04-19T13:14:52.498Z,4.78
2023-04-19T13:17:19.949Z,9.20
2023-04-19T13:19:47.498Z,6.93
2023-04-19T13:22:14.260Z,6.93
2023-04-19T13:24:41.088Z,7.82
2023-04-19T13:27:09.103Z,6.72
2023-04-19T13:29:36.309Z,6.65
2023-04-19T13:32:03.217Z,8.65
2023-04-19T13:34:29.825Z,8.20
2023-04-19T13:36:57.668Z,7.63
2023-04-19T13:39:24.372Z,7.18
2023-04-19T13:41:51.282Z,8.38
2023-04-19T13:44:18.235Z,5.43
2023-04-19T13:46:45.149Z,7.55
2023-04-19T13:49:11.940Z,6.68
2023-04-19T13:51:49.029Z,8.88
2023-04-19T13:54:20.832Z,7.40
2023-04-19T13:56:49.843Z,8.75
2023-04-19T13:59:18.105Z,4.90
2023-04-19T14:01:44.881Z,9.15
2023-04-19T14:04:11.626Z,7.13
2023-04-19T14:06:38.436Z,6.97
2023-04-19T14:09:05.270Z,7.60
2023-04-19T14:11:32.281Z,8.30
2023-04-19T14:13:58.948Z,5.20
2023-04-19T14:16:28.054Z,5.50
2023-04-19T14:18:54.710Z,11.23
2023-04-19T14:21:21.311Z,8.43
2023-04-19T14:23:47.935Z,7.63
2023-04-19T14:26:14.662Z,7.63
2023-04-19T14:28:41.554Z,8.83
2023-04-19T14:31:08.331Z,9.73
2023-04-19T14:33:34.972Z,8.57
2023-04-19T14:36:01.979Z,9.60
2023-04-19T14:38:28.677Z,9.17
2023-04-19T14:40:56.565Z,9.53
2023-04-19T14:43:23.283Z,8.27
2023-04-19T14:45:50.067Z,13.00
2023-04-19T14:48:16.764Z,12.00
2023-04-19T14:50:45.082Z,10.60
2023-04-19T14:53:11.724Z,10.67
2023-04-19T14:55:38.704Z,8.77
2023-04-19T14:58:05.726Z,9.23
2023-04-19T15:00:33.199Z,8.37
2023-04-19T15:03:00.035Z,10.33
2023-04-19T15:05:29.782Z,7.40
2023-04-19T15:07:56.521Z,11.87
2023-04-19T15:10:23.102Z,12.87
2023-04-19T15:12:49.729Z,10.53
2023-04-19T15:15:16.490Z,7.77
2023-04-19T15:17:43.330Z,7.73
2023-04-19T15:20:10.207Z,8.20
2023-04-19T15:22:36.909Z,8.77
2023-04-19T15:25:03.908Z,8.13
2023-04-19T15:27:31.357Z,8.03
2023-04-19T15:29:58.019Z,9.40
2023-04-19T15:32:24.769Z,13.47
2023-04-19T15:34:51.606Z,7.70
2023-04-19T15:37:18.210Z,10.53
2023-04-19T15:39:44.921Z,9.27
2023-04-19T15:42:11.581Z,8.57
2023-04-19T15:44:38.196Z,11.03
2023-04-19T15:47:05.086Z,9.93
2023-04-19T15:49:31.773Z,9.17
2023-04-19T15:51:58.374Z,10.23
2023-04-19T15:54:25.038Z,7.60
2023-04-19T15:56:51.686Z,10.47
2023-04-19T15:59:18.507Z,9.47
2023-04-19T16:01:45.294Z,10.47
2023-04-19T16:04:15.115Z,10.90
2023-04-19T16:06:41.950Z,9.57
2023-04-19T16:09:09.243Z,9.13
2023-04-19T16:11:35.884Z,7.57
2023-04-19T16:14:02.541Z,10.30
2023-04-19T16:16:32.951Z,9.43
2023-04-19T16:18:59.721Z,11.87
2023-04-19T16:21:28.731Z,10.03
2023-04-19T16:23:56.107Z,9.50
2023-04-19T16:26:23.157Z,11.00
2023-04-19T16:28:49.831Z,10.07
2023-04-19T16:31:16.450Z,7.87
2023-04-19T16:33:43.127Z,10.73
2023-04-19T16:36:09.779Z,11.70
2023-04-19T16:38:36.457Z,11.57
2023-04-19T16:41:05.412Z,11.30
2023-04-19T16:43:32.120Z,10.37
2023-04-19T16:45:58.789Z,13.57
2023-04-19T16:48:27.034Z,13.60
2023-04-19T16:50:53.665Z,13.57
2023-04-19T16:53:20.439Z,12.80
2023-04-19T16:55:47.093Z,12.17
2023-04-19T16:58:16.777Z,9.80
2023-04-19T17:00:43.432Z,16.67
2023-04-19T17:03:10.278Z,13.53
2023-04-19T17:05:37.054Z,13.43
2023-04-19T17:08:03.710Z,14.60
2023-04-19T17:10:30.423Z,10.67
2023-04-19T17:12:57.144Z,11.47
2023-04-19T17:15:23.835Z,13.13
2023-04-19T17:17:50.667Z,13.33
2023-04-19T17:20:17.415Z,13.40
2023-04-19T17:22:44.051Z,12.03
2023-04-19T17:25:10.699Z,12.13
2023-04-19T17:27:37.290Z,13.03
2023-04-19T17:30:07.091Z,11.90
2023-04-19T17:32:33.839Z,13.00
2023-04-19T17:35:00.565Z,14.77
2023-04-19T17:37:27.164Z,14.20
2023-04-19T17:39:53.784Z,13.10
2023-04-19T17:42:20.617Z,12.30
2023-04-19T17:44:47.587Z,11.60
2023-04-19T17:47:14.195Z,15.53
2023-04-19T17:49:41.277Z,12.73
2023-04-19T17:52:07.938Z,16.20
2023-04-19T17:54:34.600Z,10.30
2023-04-19T17:57:02.554Z,12.93
2023-04-19T17:59:29.503Z,7.13
2023-04-19T18:01:58.073Z,13.27
2023-04-19T18:04:24.935Z,14.47
2023-04-19T18:06:51.696Z,14.87
2023-04-19T18:09:19.117Z,15.70
2023-04-19T18:11:47.621Z,12.43
2023-04-19T18:14:15.326Z,10.43
2023-04-19T18:16:42.066Z,11.93
2023-04-19T18:19:08.764Z,13.40
2023-04-19T18:21:35.646Z,14.40
2023-04-19T18:24:02.304Z,11.97
2023-04-19T18:26:39.721Z,10.63
2023-04-19T18:29:06.530Z,15.10
2023-04-19T18:31:33.229Z,14.53
2023-04-19T18:34:00.918Z,11.73
2023-04-19T18:36:28.907Z,9.93
2023-04-19T18:38:55.949Z,13.70
2023-04-19T18:41:22.570Z,11.87
2023-04-19T18:44:06.835Z,9.63
2023-04-19T18:46:35.814Z,10.43
2023-04-19T18:49:02.425Z,15.57
2023-04-19T18:51:29.068Z,13.10
2023-04-19T18:53:55.661Z,12.30
2023-04-19T18:56:30.787Z,15.23
2023-04-19T18:59:08.967Z,13.30
2023-04-19T19:01:35.971Z,11.07
2023-04-19T19:06:33.518Z,11.20
2023-04-19T19:09:00.665Z,11.70
2023-04-19T19:11:54.281Z,12.60
2023-04-19T19:14:14.283Z,12.13
2023-04-19T19:16:51.409Z,15.57
2023-04-19T19:19:20.706Z,11.43
2023-04-19T19:21:47.507Z,8.70
2023-04-19T19:24:14.152Z,13.30
2023-04-19T19:26:40.824Z,13.93
2023-04-19T19:29:09.320Z,12.33
2023-04-19T19:31:36.640Z,13.70
2023-04-19T19:34:14.772Z,13.77
2023-04-19T19:36:49.186Z,12.97
2023-04-19T19:39:16.152Z,10.27
2023-04-19T19:44:12.591Z,10.73
2023-04-19T19:46:39.425Z,9.40
2023-04-19T19:49:06.614Z,11.83
2023-04-19T19:51:52.166Z,12.67
2023-04-19T19:54:19.923Z,13.43
2023-04-19T19:57:21.783Z,11.83
2023-04-19T19:59:34.738Z,18.93
2023-04-19T20:02:03.527Z,19.23
2023-04-19T20:04:31.493Z,12.53
2023-04-19T20:07:28.716Z,9.50
2023-04-19T20:09:45.266Z,14.00
2023-04-19T20:12:13.555Z,13.27
2023-04-19T20:14:40.897Z,13.43
2023-04-19T20:17:07.611Z,16.90
2023-04-19T20:19:34.375Z,13.30
2023-04-19T20:22:01.039Z,16.50
2023-04-19T20:24:28.028Z,12.63
2023-04-19T20:26:54.664Z,14.07
2023-04-19T20:29:21.475Z,10.97
2023-04-19T20:31:48.126Z,14.13
2023-04-19T20:34:14.775Z,11.63
2023-04-19T20:36:41.722Z,10.53
2023-04-19T20:39:09.773Z,12.90
2023-04-19T20:41:36.665Z,11.83
2023-04-19T20:44:05.038Z,13.50
2023-04-19T20:46:34.598Z,11.40
2023-04-19T20:49:01.259Z,12.17
2023-04-19T20:51:27.915Z,11.67
2023-04-19T20:53:54.532Z,14.87
2023-04-19T20:56:21.625Z,12.90
2023-04-19T20:58:48.226Z,10.60
2023-04-19T21:01:18.152Z,15.33
2023-04-19T21:03:45.265Z,10.37
2023-04-19T21:06:12.557Z,10.87
2023-04-19T21:08:39.386Z,12.80
2023-04-19T21:11:06.096Z,12.37
2023-04-19T21:13:33.227Z,14.83
2023-04-19T21:16:00.059Z,10.27
2023-04-19T21:18:29.733Z,12.20
2023-04-19T21:20:57.109Z,12.43
2023-04-19T21:23:23.761Z,9.33
2023-04-19T21:25:50.830Z,9.13
2023-04-19T21:28:17.554Z,10.00
2023-04-19T21:30:44.184Z,9.90
2023-04-19T21:33:11.092Z,11.43
2023-04-19T21:35:37.880Z,13.47
2023-04-19T21:38:04.585Z,13.27
2023-04-19T21:40:31.182Z,11.23
2023-04-19T21:42:57.874Z,12.63
2023-04-19T21:45:24.464Z,12.77
2023-04-19T21:47:51.461Z,9.53
2023-04-19T21:50:18.153Z,11.73
2023-04-19T21:52:45.028Z,12.13
2023-04-19T21:55:11.641Z,8.50
2023-04-19T21:57:38.576Z,14.47
2023-04-19T22:00:11.502Z,10.53
2023-04-19T22:02:38.300Z,12.50
2023-04-19T22:05:07.326Z,11.03
2023-04-19T22:07:37.369Z,10.33
2023-04-19T22:10:06.069Z,10.23
2023-04-19T22:12:34.130Z,11.50
2023-04-19T22:15:02.215Z,13.20
2023-04-19T22:17:29.621Z,12.00
2023-04-19T22:19:56.310Z,10.03
2023-04-19T22:22:22.959Z,11.00
2023-04-19T22:24:57.587Z,10.10
2023-04-19T22:27:25.155Z,11.53
2023-04-19T22:29:51.761Z,9.37
2023-04-19T22:32:18.587Z,10.43
2023-04-19T22:34:45.617Z,12.63
2023-04-19T22:37:12.225Z,10.83
2023-04-19T22:39:38.899Z,9.13
2023-04-19T22:42:05.675Z,8.33
2023-04-19T22:44:32.292Z,10.57
2023-04-19T22:47:03.247Z,8.80
2023-04-19T22:49:30.146Z,12.03
2023-04-19T22:51:58.530Z,12.47
2023-04-19T22:54:25.865Z,15.40
2023-04-19T22:56:52.498Z,11.63
2023-04-19T22:59:19.207Z,11.10
2023-04-19T23:01:46.035Z,12.93
2023-04-19T23:04:15.964Z,11.10
2023-04-19T23:06:44.082Z,11.33
2023-04-19T23:09:13.932Z,14.63
2023-04-19T23:11:41.332Z,12.63
2023-04-19T23:14:10.395Z,12.30
2023-04-19T23:16:38.712Z,9.90
2023-04-19T23:19:07.517Z,12.23
2023-04-19T23:21:34.461Z,16.00
2023-04-19T23:24:01.109Z,15.87
2023-04-19T23:26:27.724Z,15.03
2023-04-19T23:28:54.333Z,13.30
2023-04-19T23:31:21.106Z,17.47
2023-04-19T23:33:48.247Z,12.60
2023-04-19T23:36:14.994Z,15.57
2023-04-19T23:38:41.772Z,16.23
2023-04-19T23:41:11.271Z,15.07
2023-04-19T23:43:38.193Z,13.77
2023-04-19T23:46:04.993Z,12.63
2023-04-19T23:48:31.651Z,14.27
2023-04-19T23:50:58.262Z,14.63
2023-04-19T23:53:24.899Z,14.50
2023-04-19T23:55:51.489Z,15.93
2023-04-19T23:58:18.358Z,11.00
